createdAt,value
2016-11-12T00:00:16.568Z,0
2016-11-12T00:01:16.592Z,0
2016-11-12T00:02:16.591Z,0
2016-11-12T00:03:16.614Z,0
2016-11-12T00:04:16.627Z,0
2016-11-12T00:05:16.633Z,0
2016-11-12T00:06:16.643Z,0
2016-11-12T00:07:16.738Z,0
2016-11-12T00:08:16.716Z,0
2016-11-12T00:09:16.667Z,0
2016-11-12T00:10:16.706Z,0
2016-11-12T00:11:16.699Z,0
2016-11-12T00:12:16.714Z,0
2016-11-12T00:13:16.718Z,0
2016-11-12T00:14:16.733Z,0
2016-11-12T00:15:16.737Z,0
2016-11-12T00:16:16.741Z,0
2016-11-12T00:17:16.766Z,0
2016-11-12T00:18:16.773Z,0
2016-11-12T00:19:16.784Z,0
2016-11-12T00:20:16.783Z,0
2016-11-12T00:21:16.885Z,0
2016-11-12T00:22:16.808Z,0
2016-11-12T00:23:16.832Z,0
2016-11-12T00:24:16.841Z,0
2016-11-12T00:25:16.843Z,0
2016-11-12T00:26:16.898Z,0
2016-11-12T00:27:16.861Z,0
2016-11-12T00:28:16.884Z,0
2016-11-12T00:29:16.899Z,0
2016-11-12T00:30:16.905Z,0
2016-11-12T00:31:16.906Z,0
2016-11-12T00:32:16.911Z,0
2016-11-12T00:33:16.921Z,0
2016-11-12T00:34:16.953Z,0
2016-11-12T00:35:16.961Z,0
2016-11-12T00:36:16.959Z,0
2016-11-12T00:37:17.022Z,0
2016-11-12T00:38:16.983Z,0
2016-11-12T00:39:16.988Z,0
2016-11-12T00:40:17.003Z,0
2016-11-12T00:41:17.013Z,0
2016-11-12T00:42:17.015Z,0
2016-11-12T00:43:17.031Z,0
2016-11-12T00:44:17.036Z,0
2016-11-12T00:45:17.061Z,0
2016-11-12T00:46:17.059Z,0
2016-11-12T00:47:17.087Z,0
2016-11-12T00:48:17.080Z,0
2016-11-12T00:49:17.084Z,0
2016-11-12T00:50:17.115Z,0
2016-11-12T00:51:17.126Z,0
2016-11-12T00:52:17.129Z,0
2016-11-12T00:53:17.130Z,0
2016-11-12T00:54:17.143Z,0
2016-11-12T00:55:17.160Z,0
2016-11-12T00:56:17.171Z,0
2016-11-12T00:57:17.186Z,0
2016-11-12T00:58:17.183Z,0
2016-11-12T00:59:17.197Z,0
2016-11-12T01:00:17.202Z,0
2016-11-12T01:01:17.219Z,0
2016-11-12T01:02:17.236Z,0
2016-11-12T01:03:17.243Z,0
2016-11-12T01:04:17.246Z,0
2016-11-12T01:05:17.258Z,0
2016-11-12T01:06:17.273Z,0
2016-11-12T01:07:17.279Z,0
2016-11-12T01:08:17.282Z,0
2016-11-12T01:09:17.305Z,0
2016-11-12T01:10:17.323Z,0
2016-11-12T01:11:17.318Z,0
2016-11-12T01:12:17.343Z,0
2016-11-12T01:13:17.342Z,0
2016-11-12T01:14:17.364Z,0
2016-11-12T01:15:17.368Z,0
2016-11-12T01:16:17.377Z,0
2016-11-12T01:17:17.383Z,0
2016-11-12T01:18:17.392Z,0
2016-11-12T01:19:17.396Z,0
2016-11-12T01:20:17.417Z,0
2016-11-12T01:21:17.426Z,0
2016-11-12T01:22:17.432Z,0
2016-11-12T01:23:17.441Z,0
2016-11-12T01:24:17.447Z,0
2016-11-12T01:25:17.467Z,0
2016-11-12T01:26:17.471Z,0
2016-11-12T01:27:17.468Z,0
2016-11-12T01:28:17.499Z,0
2016-11-12T01:29:17.496Z,0
2016-11-12T01:30:17.507Z,0
2016-11-12T01:31:17.533Z,0
2016-11-12T01:32:17.526Z,0
2016-11-12T01:33:17.546Z,0
2016-11-12T01:34:17.544Z,0
2016-11-12T01:35:17.567Z,0
2016-11-12T01:36:17.572Z,0
2016-11-12T01:37:17.585Z,0
2016-11-12T01:38:17.589Z,0
2016-11-12T01:39:17.606Z,0
2016-11-12T01:40:17.624Z,0
2016-11-12T01:41:17.617Z,0
2016-11-12T01:42:17.640Z,0
2016-11-12T01:43:17.637Z,0
2016-11-12T01:44:17.650Z,0
2016-11-12T01:45:17.674Z,0
2016-11-12T01:46:17.679Z,0
2016-11-12T01:47:17.678Z,0
2016-11-12T01:48:17.698Z,0
2016-11-12T01:49:17.700Z,0
2016-11-12T01:50:17.722Z,0
2016-11-12T01:51:17.721Z,0
2016-11-12T01:52:17.738Z,0
2016-11-12T01:53:17.751Z,0
2016-11-12T01:54:17.753Z,0
2016-11-12T01:55:17.761Z,0
2016-11-12T01:56:17.774Z,0
2016-11-12T01:57:17.783Z,0
2016-11-12T01:58:17.880Z,0
2016-11-12T01:59:17.801Z,0
2016-11-12T02:00:17.815Z,0
2016-11-12T02:01:17.820Z,0
2016-11-12T02:02:17.837Z,0
2016-11-12T02:03:17.846Z,0
2016-11-12T02:04:17.864Z,0
2016-11-12T02:05:17.867Z,0
2016-11-12T02:06:17.877Z,0
2016-11-12T02:07:17.882Z,0
2016-11-12T02:08:17.919Z,0
2016-11-12T02:09:17.903Z,0
2016-11-12T02:10:17.924Z,0
2016-11-12T02:11:17.954Z,0
2016-11-12T02:12:17.924Z,0
2016-11-12T02:13:17.947Z,0
2016-11-12T02:14:17.958Z,0
2016-11-12T02:15:17.967Z,0
2016-11-12T02:16:17.984Z,0
2016-11-12T02:17:17.989Z,0
2016-11-12T02:18:18.016Z,0
2016-11-12T02:19:18.018Z,0
2016-11-12T02:20:18.023Z,0
2016-11-12T02:21:18.029Z,0
2016-11-12T02:22:18.035Z,0
2016-11-12T02:23:18.051Z,0
2016-11-12T02:24:18.051Z,0
2016-11-12T02:25:18.065Z,0
2016-11-12T02:26:18.067Z,0
2016-11-12T02:27:18.094Z,0
2016-11-12T02:28:18.091Z,0
2016-11-12T02:29:18.099Z,0
2016-11-12T02:30:18.113Z,0
2016-11-12T02:31:18.120Z,0
2016-11-12T02:32:18.140Z,0
2016-11-12T02:33:18.147Z,0
2016-11-12T02:34:18.159Z,0
2016-11-12T02:35:18.168Z,0
2016-11-12T02:36:18.181Z,0
2016-11-12T02:37:18.191Z,0
2016-11-12T02:38:18.194Z,0
2016-11-12T02:39:18.211Z,0
2016-11-12T02:40:18.213Z,0
2016-11-12T02:41:18.236Z,0
2016-11-12T02:42:18.310Z,0
2016-11-12T02:43:18.249Z,0
2016-11-12T02:44:18.253Z,0
2016-11-12T02:45:18.262Z,0
2016-11-12T02:46:18.274Z,0
2016-11-12T02:47:18.285Z,0
2016-11-12T02:48:18.302Z,0
2016-11-12T02:49:18.295Z,0
2016-11-12T02:50:18.311Z,0
2016-11-12T02:51:18.320Z,0
2016-11-12T02:52:18.423Z,0
2016-11-12T02:53:18.338Z,0
2016-11-12T02:54:18.363Z,0
2016-11-12T02:55:18.362Z,0
2016-11-12T02:56:18.369Z,0
2016-11-12T02:57:18.383Z,0
2016-11-12T02:58:18.395Z,0
2016-11-12T02:59:18.406Z,0
2016-11-12T03:00:18.442Z,0
2016-11-12T03:01:18.430Z,0
2016-11-12T03:02:18.432Z,0
2016-11-12T03:03:18.442Z,0
2016-11-12T03:04:18.449Z,0
2016-11-12T03:05:18.465Z,0
2016-11-12T03:06:18.474Z,0
2016-11-12T03:07:18.483Z,0
2016-11-12T03:08:18.478Z,0
2016-11-12T03:09:18.512Z,0
2016-11-12T03:10:18.521Z,0
2016-11-12T03:11:18.523Z,0
2016-11-12T03:12:18.540Z,0
2016-11-12T03:13:18.543Z,0
2016-11-12T03:14:18.548Z,0
2016-11-12T03:15:18.562Z,0
2016-11-12T03:16:18.566Z,0
2016-11-12T03:17:18.586Z,0
2016-11-12T03:18:18.586Z,0
2016-11-12T03:19:18.681Z,0
2016-11-12T03:20:18.605Z,0
2016-11-12T03:21:18.614Z,0
2016-11-12T03:22:18.645Z,0
2016-11-12T03:23:18.639Z,0
2016-11-12T03:24:18.651Z,0
2016-11-12T03:25:18.671Z,0
2016-11-12T03:26:18.675Z,0
2016-11-12T03:27:18.687Z,0
2016-11-12T03:28:18.689Z,0
2016-11-12T03:29:18.732Z,0
2016-11-12T03:30:18.709Z,0
2016-11-12T03:31:18.736Z,0
2016-11-12T03:32:18.733Z,0
2016-11-12T03:33:18.750Z,0
2016-11-12T03:34:18.759Z,0
2016-11-12T03:35:18.771Z,0
2016-11-12T03:36:18.769Z,0
2016-11-12T03:37:18.789Z,0
2016-11-12T03:38:18.789Z,0
2016-11-12T03:39:18.806Z,0
2016-11-12T03:40:18.808Z,0
2016-11-12T03:41:18.823Z,0
2016-11-12T03:42:18.827Z,0
2016-11-12T03:43:18.848Z,0
2016-11-12T03:44:18.846Z,0
2016-11-12T03:45:18.870Z,0
2016-11-12T03:46:18.875Z,0
2016-11-12T03:47:18.881Z,0
2016-11-12T03:48:18.899Z,0
2016-11-12T03:49:18.902Z,0
2016-11-12T03:50:18.918Z,0
2016-11-12T03:51:18.929Z,0
2016-11-12T03:52:18.934Z,0
2016-11-12T03:53:18.948Z,0
2016-11-12T03:54:18.976Z,0
2016-11-12T03:55:18.969Z,0
2016-11-12T03:56:18.977Z,0
2016-11-12T03:57:18.991Z,0
2016-11-12T03:58:19.002Z,0
2016-11-12T03:59:19.012Z,0
2016-11-12T04:01:19.023Z,0
2016-11-12T04:02:19.065Z,0
2016-11-12T04:03:19.034Z,0
2016-11-12T04:04:19.061Z,0
2016-11-12T04:05:19.063Z,0
2016-11-12T04:06:19.078Z,0
2016-11-12T04:07:19.083Z,0
2016-11-12T04:08:19.096Z,0
2016-11-12T04:09:19.110Z,0
2016-11-12T04:10:19.119Z,0
2016-11-12T04:11:19.131Z,0
2016-11-12T04:12:19.141Z,0
2016-11-12T04:13:19.147Z,0
2016-11-12T04:14:19.181Z,0
2016-11-12T04:15:19.174Z,0
2016-11-12T04:16:19.179Z,0
2016-11-12T04:17:19.196Z,0
2016-11-12T04:18:19.192Z,0
2016-11-12T04:19:19.213Z,0
2016-11-12T04:20:19.213Z,0
2016-11-12T04:21:19.227Z,0
2016-11-12T04:22:19.236Z,0
2016-11-12T04:23:19.246Z,0
2016-11-12T04:24:19.265Z,0
2016-11-12T04:25:19.266Z,0
2016-11-12T04:26:19.267Z,0
2016-11-12T04:27:19.317Z,0
2016-11-12T04:28:19.299Z,0
2016-11-12T04:29:19.300Z,0
2016-11-12T04:30:19.318Z,0
2016-11-12T04:31:19.348Z,0
2016-11-12T04:32:19.341Z,0
2016-11-12T04:33:19.355Z,0
2016-11-12T04:34:19.356Z,0
2016-11-12T04:35:19.378Z,0
2016-11-12T04:36:19.373Z,0
2016-11-12T04:37:19.384Z,0
2016-11-12T04:38:19.398Z,0
2016-11-12T04:39:19.412Z,0
2016-11-12T04:40:19.458Z,0
2016-11-12T04:41:19.435Z,0
2016-11-12T04:42:19.448Z,0
2016-11-12T04:43:19.444Z,0
2016-11-12T04:44:19.462Z,0
2016-11-12T04:45:19.468Z,0
2016-11-12T04:46:19.488Z,0
2016-11-12T04:47:19.485Z,0
2016-11-12T04:48:19.492Z,0
2016-11-12T04:49:19.508Z,0
2016-11-12T04:50:19.522Z,0
2016-11-12T04:51:19.528Z,0
2016-11-12T04:52:19.540Z,0
2016-11-12T04:53:19.552Z,0
2016-11-12T04:54:19.566Z,0
2016-11-12T04:55:19.562Z,0
2016-11-12T04:56:19.580Z,0
2016-11-12T04:57:19.593Z,0
2016-11-12T04:58:19.609Z,0
2016-11-12T04:59:19.607Z,0
2016-11-12T05:00:19.628Z,0
2016-11-12T05:01:19.632Z,0
2016-11-12T05:02:19.642Z,0
2016-11-12T05:03:19.651Z,0
2016-11-12T05:04:19.696Z,0
2016-11-12T05:05:19.661Z,0
2016-11-12T05:06:19.681Z,0
2016-11-12T05:07:19.687Z,0
2016-11-12T05:08:19.704Z,0
2016-11-12T05:09:19.718Z,0
2016-11-12T05:10:19.718Z,0
2016-11-12T05:11:19.743Z,0
2016-11-12T05:12:19.755Z,0
2016-11-12T05:13:19.766Z,0
2016-11-12T05:14:19.774Z,0
2016-11-12T05:15:19.778Z,0
2016-11-12T05:16:19.784Z,0
2016-11-12T05:17:19.790Z,0
2016-11-12T05:18:19.803Z,0
2016-11-12T05:19:19.826Z,0
2016-11-12T05:20:19.821Z,0
2016-11-12T05:21:19.833Z,0
2016-11-12T05:22:19.843Z,0
2016-11-12T05:23:19.855Z,0
2016-11-12T05:24:19.861Z,0
2016-11-12T05:25:19.937Z,0
2016-11-12T05:26:19.879Z,0
2016-11-12T05:27:19.897Z,0
2016-11-12T05:28:19.900Z,0
2016-11-12T05:29:19.930Z,0
2016-11-12T05:30:19.955Z,0
2016-11-12T05:31:19.930Z,0
2016-11-12T05:32:19.946Z,0
2016-11-12T05:33:19.955Z,0
2016-11-12T05:34:19.973Z,0
2016-11-12T05:35:19.980Z,0
2016-11-12T05:36:19.989Z,0
2016-11-12T05:37:20.004Z,0
2016-11-12T05:38:20.011Z,0
2016-11-12T05:39:20.012Z,0
2016-11-12T05:40:20.042Z,0
2016-11-12T05:41:20.046Z,0
2016-11-12T05:42:20.039Z,0
2016-11-12T05:43:20.059Z,0
2016-11-12T05:44:20.067Z,0
2016-11-12T05:45:20.071Z,0
2016-11-12T05:46:20.074Z,0
2016-11-12T05:47:20.104Z,0
2016-11-12T05:48:20.111Z,0
2016-11-12T05:49:20.196Z,0
2016-11-12T05:50:20.128Z,0
2016-11-12T05:51:20.134Z,0
2016-11-12T05:52:20.143Z,0
2016-11-12T05:53:20.150Z,0
2016-11-12T05:54:20.154Z,0
2016-11-12T05:55:20.176Z,0
2016-11-12T05:56:20.189Z,0
2016-11-12T05:57:35.124Z,0
2016-11-12T05:58:20.201Z,0
2016-11-12T05:59:20.253Z,0
2016-11-12T06:00:20.214Z,0
2016-11-12T06:01:20.227Z,0
2016-11-12T06:02:20.228Z,0
2016-11-12T06:03:20.248Z,0
2016-11-12T06:04:20.260Z,0
2016-11-12T06:05:20.268Z,0
2016-11-12T06:06:20.277Z,0
2016-11-12T06:07:20.281Z,0
2016-11-12T06:08:20.316Z,0
2016-11-12T06:09:20.298Z,0
2016-11-12T06:10:20.325Z,0
2016-11-12T06:11:20.326Z,0
2016-11-12T06:13:20.344Z,0
2016-11-12T06:14:20.367Z,0
2016-11-12T06:15:20.355Z,0
2016-11-12T06:16:20.376Z,0
2016-11-12T06:17:20.386Z,0
2016-11-12T06:18:20.395Z,0
2016-11-12T06:19:20.423Z,0
2016-11-12T06:20:20.416Z,0
2016-11-12T06:21:20.410Z,0
2016-11-12T06:22:20.442Z,0
2016-11-12T06:23:20.445Z,0
2016-11-12T06:24:20.456Z,0
2016-11-12T06:25:20.469Z,0
2016-11-12T06:26:20.472Z,0
2016-11-12T06:27:20.500Z,0
2016-11-12T06:28:20.496Z,0
2016-11-12T06:29:20.498Z,0
2016-11-12T06:30:20.502Z,0
2016-11-12T06:31:20.515Z,0
2016-11-12T06:32:20.537Z,0
2016-11-12T06:33:20.580Z,0
2016-11-12T06:34:20.546Z,0
2016-11-12T06:35:20.551Z,5
2016-11-12T06:36:20.633Z,5
2016-11-12T06:37:20.571Z,5
2016-11-12T06:38:20.902Z,5
2016-11-12T06:39:20.592Z,5
2016-11-12T06:40:20.593Z,5
2016-11-12T06:41:20.610Z,5
2016-11-12T06:42:20.625Z,5
2016-11-12T06:43:20.632Z,5
2016-11-12T06:44:20.641Z,10
2016-11-12T06:45:20.645Z,10
2016-11-12T06:46:20.660Z,10
2016-11-12T06:47:20.693Z,10
2016-11-12T06:48:20.686Z,10
2016-11-12T06:49:20.695Z,10
2016-11-12T06:50:20.698Z,15
2016-11-12T06:51:20.712Z,15
2016-11-12T06:52:20.716Z,15
2016-11-12T06:53:20.723Z,15
2016-11-12T06:54:20.741Z,15
2016-11-12T06:55:20.818Z,20
2016-11-12T06:56:20.766Z,20
2016-11-12T06:57:20.770Z,20
2016-11-12T06:58:20.761Z,20
2016-11-12T06:59:20.855Z,20
2016-11-12T07:00:20.785Z,25
2016-11-12T07:01:20.796Z,25
2016-11-12T07:02:20.811Z,25
2016-11-12T07:03:20.821Z,25
2016-11-12T07:04:20.834Z,30
2016-11-12T07:05:20.841Z,30
2016-11-12T07:06:20.852Z,30
2016-11-12T07:07:20.858Z,30
2016-11-12T07:08:20.859Z,30
2016-11-12T07:09:20.886Z,35
2016-11-12T07:10:20.893Z,35
2016-11-12T07:11:20.903Z,35
2016-11-12T07:12:20.899Z,35
2016-11-12T07:13:20.908Z,40
2016-11-12T07:14:20.920Z,40
2016-11-12T07:15:20.942Z,40
2016-11-12T07:16:20.949Z,40
2016-11-12T07:17:20.947Z,40
2016-11-12T07:18:20.953Z,45
2016-11-12T07:19:20.973Z,45
2016-11-12T07:20:20.979Z,45
2016-11-12T07:21:21.004Z,45
2016-11-12T07:22:21.008Z,45
2016-11-12T07:23:21.010Z,50
2016-11-12T07:24:21.010Z,50
2016-11-12T07:25:21.044Z,50
2016-11-12T07:26:21.048Z,50
2016-11-12T07:27:21.057Z,55
2016-11-12T07:28:21.046Z,55
2016-11-12T07:29:21.080Z,55
2016-11-12T07:30:21.085Z,60
2016-11-12T07:31:21.092Z,60
2016-11-12T07:32:21.106Z,60
2016-11-12T07:33:21.108Z,60
2016-11-12T07:34:21.149Z,65
2016-11-12T07:35:21.129Z,65
2016-11-12T07:36:21.141Z,65
2016-11-12T07:37:21.235Z,65
2016-11-12T07:38:21.164Z,70
2016-11-12T07:39:21.164Z,70
2016-11-12T07:40:21.184Z,70
2016-11-12T07:41:21.183Z,70
2016-11-12T07:42:21.190Z,75
2016-11-12T07:43:21.238Z,75
2016-11-12T07:44:21.221Z,75
2016-11-12T07:45:21.243Z,75
2016-11-12T07:46:21.245Z,80
2016-11-12T07:47:21.246Z,80
2016-11-12T07:48:21.268Z,80
2016-11-12T07:49:21.269Z,80
2016-11-12T07:50:21.289Z,80
2016-11-12T07:51:21.306Z,80
2016-11-12T07:52:21.309Z,80
2016-11-12T07:53:21.316Z,80
2016-11-12T07:54:21.326Z,85
2016-11-12T07:55:21.334Z,85
2016-11-12T07:56:21.340Z,85
2016-11-12T07:57:21.360Z,85
2016-11-12T07:58:21.357Z,90
2016-11-12T07:59:21.378Z,90
2016-11-12T08:00:21.376Z,90
2016-11-12T08:01:21.404Z,90
2016-11-12T08:02:21.412Z,95
2016-11-12T08:03:21.420Z,95
2016-11-12T08:04:21.433Z,95
2016-11-12T08:05:21.444Z,95
2016-11-12T08:06:21.452Z,100
2016-11-12T08:07:21.670Z,100
2016-11-12T08:08:21.467Z,100
2016-11-12T08:09:21.481Z,100
2016-11-12T08:10:21.499Z,100
2016-11-12T08:11:21.525Z,105
2016-11-12T08:12:21.517Z,105
2016-11-12T08:13:21.532Z,105
2016-11-12T08:14:21.534Z,105
2016-11-12T08:15:21.574Z,110
2016-11-12T08:16:21.561Z,110
2016-11-12T08:17:21.574Z,110
2016-11-12T08:18:21.590Z,110
2016-11-12T08:19:21.599Z,110
2016-11-12T08:20:21.592Z,115
2016-11-12T08:21:21.630Z,115
2016-11-12T08:22:21.704Z,115
2016-11-12T08:24:21.651Z,115
2016-11-12T08:25:21.676Z,115
2016-11-12T08:26:21.673Z,120
2016-11-12T08:27:21.683Z,120
2016-11-12T08:28:21.680Z,120
2016-11-12T08:29:21.694Z,120
2016-11-12T08:30:21.723Z,120
2016-11-12T08:31:21.735Z,120
2016-11-12T08:32:21.748Z,125
2016-11-12T08:33:21.756Z,125
2016-11-12T08:34:21.762Z,125
2016-11-12T08:35:21.779Z,125
2016-11-12T08:36:21.875Z,125
2016-11-12T08:37:21.801Z,125
2016-11-12T08:38:21.814Z,125
2016-11-12T08:39:21.818Z,130
2016-11-12T08:40:21.840Z,130
2016-11-12T08:41:21.870Z,130
2016-11-12T08:42:21.848Z,130
2016-11-12T08:43:21.866Z,130
2016-11-12T08:44:21.879Z,135
2016-11-12T08:45:21.889Z,135
2016-11-12T08:46:21.901Z,135
2016-11-12T08:47:21.989Z,135
2016-11-12T08:48:21.929Z,135
2016-11-12T08:49:21.944Z,135
2016-11-12T08:50:21.954Z,135
2016-11-12T08:51:21.992Z,135
2016-11-12T08:52:21.977Z,140
2016-11-12T08:53:21.985Z,140
2016-11-12T08:54:22.008Z,140
2016-11-12T08:55:22.017Z,140
2016-11-12T08:56:22.031Z,125
2016-11-12T08:57:22.035Z,140
2016-11-12T08:58:22.042Z,140
2016-11-12T08:59:22.394Z,140
2016-11-12T09:00:22.065Z,140
2016-11-12T09:01:22.083Z,140
2016-11-12T09:02:22.427Z,140
2016-11-12T09:03:22.097Z,145
2016-11-12T09:04:22.121Z,145
2016-11-12T09:05:22.122Z,145
2016-11-12T09:06:22.145Z,145
2016-11-12T09:07:22.152Z,145
2016-11-12T09:08:22.176Z,145
2016-11-12T09:09:22.190Z,145
2016-11-12T09:10:22.197Z,145
2016-11-12T09:11:22.239Z,145
2016-11-12T09:12:22.244Z,145
2016-11-12T09:13:22.224Z,145
2016-11-12T09:14:22.243Z,145
2016-11-12T09:15:22.259Z,150
2016-11-12T09:16:22.278Z,150
2016-11-12T09:17:22.283Z,150
2016-11-12T09:18:22.303Z,150
2016-11-12T09:19:22.299Z,150
2016-11-12T09:20:22.324Z,150
2016-11-12T09:21:22.329Z,155
2016-11-12T09:22:22.341Z,155
2016-11-12T09:23:22.355Z,155
2016-11-12T09:24:22.361Z,155
2016-11-12T09:25:22.374Z,155
2016-11-12T09:26:22.397Z,155
2016-11-12T09:27:22.396Z,155
2016-11-12T09:28:22.430Z,155
2016-11-12T09:29:22.434Z,155
2016-11-12T09:30:22.455Z,155
2016-11-12T09:31:22.458Z,160
2016-11-12T09:32:22.464Z,160
2016-11-12T09:33:22.474Z,160
2016-11-12T09:34:22.497Z,160
2016-11-12T09:35:22.548Z,160
2016-11-12T09:36:22.563Z,160
2016-11-12T09:37:22.532Z,160
2016-11-12T09:38:22.551Z,165
2016-11-12T09:39:22.575Z,165
2016-11-12T09:40:22.569Z,165
2016-11-12T09:41:22.580Z,165
2016-11-12T09:42:22.618Z,160
2016-11-12T09:43:22.623Z,165
2016-11-12T09:44:22.626Z,165
2016-11-12T09:45:22.634Z,165
2016-11-12T09:46:22.652Z,165
2016-11-12T09:47:22.666Z,160
2016-11-12T09:48:22.703Z,155
2016-11-12T09:49:22.717Z,150
2016-11-12T09:50:22.784Z,160
2016-11-12T09:51:22.755Z,135
2016-11-12T09:52:22.753Z,145
2016-11-12T09:53:22.744Z,150
2016-11-12T09:54:22.757Z,125
2016-11-12T09:55:22.770Z,150
2016-11-12T09:56:22.779Z,135
2016-11-12T09:57:22.797Z,125
2016-11-12T09:58:22.801Z,155
2016-11-12T09:59:22.808Z,160
2016-11-12T10:00:22.838Z,160
2016-11-12T10:01:22.839Z,160
2016-11-12T10:02:22.842Z,160
2016-11-12T10:03:22.855Z,155
2016-11-12T10:04:22.876Z,170
2016-11-12T10:05:22.892Z,165
2016-11-12T10:06:22.914Z,160
2016-11-12T10:07:22.939Z,160
2016-11-12T10:08:22.935Z,150
2016-11-12T10:09:22.940Z,145
2016-11-12T10:10:22.960Z,140
2016-11-12T10:11:22.974Z,130
2016-11-12T10:12:23.069Z,110
2016-11-12T10:13:22.989Z,110
2016-11-12T10:14:23.018Z,105
2016-11-12T10:15:23.025Z,110
2016-11-12T10:16:23.040Z,110
2016-11-12T10:17:23.046Z,115
2016-11-12T10:18:23.058Z,130
2016-11-12T10:19:23.384Z,140
2016-11-12T10:20:23.083Z,110
2016-11-12T10:21:23.116Z,110
2016-11-12T10:22:23.124Z,110
2016-11-12T10:23:23.126Z,110
2016-11-12T10:24:23.135Z,110
2016-11-12T10:25:23.159Z,115
2016-11-12T10:26:23.169Z,115
2016-11-12T10:27:23.231Z,120
2016-11-12T10:28:23.195Z,120
2016-11-12T10:29:23.201Z,125
2016-11-12T10:30:23.221Z,155
2016-11-12T10:31:23.241Z,160
2016-11-12T10:32:23.243Z,160
2016-11-12T10:33:23.249Z,145
2016-11-12T10:34:23.272Z,155
2016-11-12T10:35:23.278Z,155
2016-11-12T10:36:23.290Z,160
2016-11-12T10:37:23.311Z,155
2016-11-12T10:38:23.313Z,150
2016-11-12T10:39:23.326Z,145
2016-11-12T10:40:23.336Z,140
2016-11-12T10:41:23.368Z,140
2016-11-12T10:42:23.398Z,140
2016-11-12T10:43:23.386Z,140
2016-11-12T10:44:23.400Z,140
2016-11-12T10:45:23.415Z,140
2016-11-12T10:46:23.432Z,145
2016-11-12T10:47:23.441Z,150
2016-11-12T10:48:23.442Z,150
2016-11-12T10:49:23.473Z,150
2016-11-12T10:50:23.469Z,150
2016-11-12T10:51:23.486Z,145
2016-11-12T10:52:23.487Z,145
2016-11-12T10:53:23.503Z,150
2016-11-12T10:54:23.521Z,155
2016-11-12T10:55:23.535Z,145
2016-11-12T10:56:23.542Z,150
2016-11-12T10:57:23.559Z,155
2016-11-12T10:58:23.567Z,150
2016-11-12T10:59:23.595Z,160
2016-11-12T11:00:23.602Z,160
2016-11-12T11:01:23.610Z,160
2016-11-12T11:02:23.624Z,160
2016-11-12T11:03:23.645Z,140
2016-11-12T11:04:23.650Z,155
2016-11-12T11:05:23.660Z,165
2016-11-12T11:06:23.669Z,165
2016-11-12T11:07:23.685Z,160
2016-11-12T11:08:23.705Z,160
2016-11-12T11:09:23.731Z,160
2016-11-12T11:10:23.718Z,160
2016-11-12T11:11:23.750Z,165
2016-11-12T11:12:23.788Z,155
2016-11-12T11:13:23.764Z,160
2016-11-12T11:14:23.768Z,170
2016-11-12T11:15:23.786Z,175
2016-11-12T11:16:23.811Z,170
2016-11-12T11:17:23.851Z,160
2016-11-12T11:18:23.820Z,160
2016-11-12T11:19:23.842Z,150
2016-11-12T11:20:23.845Z,145
2016-11-12T11:21:23.878Z,135
2016-11-12T11:22:23.880Z,135
2016-11-12T11:23:23.905Z,140
2016-11-12T11:24:23.914Z,130
2016-11-12T11:25:23.962Z,140
2016-11-12T11:26:23.921Z,135
2016-11-12T11:27:23.961Z,150
2016-11-12T11:28:23.960Z,140
2016-11-12T11:29:23.963Z,155
2016-11-12T11:30:23.992Z,155
2016-11-12T11:31:24.117Z,160
2016-11-12T11:32:24.015Z,160
2016-11-12T11:33:24.026Z,165
2016-11-12T11:34:24.029Z,165
2016-11-12T11:35:24.060Z,160
2016-11-12T11:36:24.052Z,165
2016-11-12T11:37:24.090Z,165
2016-11-12T11:38:24.085Z,165
2016-11-12T11:39:24.110Z,165
2016-11-12T11:40:24.117Z,165
2016-11-12T11:41:24.120Z,165
2016-11-12T11:42:24.133Z,160
2016-11-12T11:43:24.475Z,160
2016-11-12T11:44:24.175Z,165
2016-11-12T11:45:24.197Z,165
2016-11-12T11:46:24.188Z,165
2016-11-12T11:47:24.215Z,165
2016-11-12T11:48:24.210Z,160
2016-11-12T11:49:24.245Z,160
2016-11-12T11:50:24.248Z,160
2016-11-12T11:51:24.578Z,160
2016-11-12T11:52:24.282Z,160
2016-11-12T11:53:24.306Z,160
2016-11-12T11:54:24.299Z,160
2016-11-12T11:55:24.323Z,160
2016-11-12T11:56:24.334Z,155
2016-11-12T11:57:24.340Z,160
2016-11-12T11:58:24.359Z,150
2016-11-12T11:59:25.078Z,155
2016-11-12T12:00:24.385Z,155
2016-11-12T12:01:24.395Z,155
2016-11-12T12:02:24.409Z,155
2016-11-12T12:03:24.417Z,155
2016-11-12T12:04:24.434Z,155
2016-11-12T12:05:24.441Z,155
2016-11-12T12:06:24.444Z,155
2016-11-12T12:07:24.475Z,155
2016-11-12T12:08:24.488Z,155
2016-11-12T12:09:24.503Z,155
2016-11-12T12:10:24.520Z,155
2016-11-12T12:11:24.528Z,155
2016-11-12T12:12:24.531Z,155
2016-11-12T12:13:24.547Z,150
2016-11-12T12:14:24.555Z,155
2016-11-12T12:15:24.596Z,155
2016-11-12T12:16:24.585Z,155
2016-11-12T12:17:24.605Z,150
2016-11-12T12:18:24.611Z,150
2016-11-12T12:19:24.627Z,150
2016-11-12T12:20:24.645Z,150
2016-11-12T12:21:24.665Z,125
2016-11-12T12:22:24.710Z,125
2016-11-12T12:23:24.720Z,135
2016-11-12T12:24:24.713Z,130
2016-11-12T12:25:24.785Z,150
2016-11-12T12:26:24.762Z,145
2016-11-12T12:27:24.741Z,150
2016-11-12T12:28:24.738Z,130
2016-11-12T12:29:24.761Z,140
2016-11-12T12:30:24.771Z,130
2016-11-12T12:31:24.820Z,130
2016-11-12T12:32:24.836Z,125
2016-11-12T12:33:24.827Z,120
2016-11-12T12:34:24.827Z,120
2016-11-12T12:35:24.921Z,120
2016-11-12T12:36:25.166Z,120
2016-11-12T12:37:24.877Z,120
2016-11-12T12:38:24.876Z,130
2016-11-12T12:39:24.932Z,115
2016-11-12T12:40:24.897Z,115
2016-11-12T12:41:24.925Z,120
2016-11-12T12:42:24.922Z,120
2016-11-12T12:43:24.933Z,120
2016-11-12T12:44:24.957Z,125
2016-11-12T12:45:25.048Z,120
2016-11-12T12:46:25.046Z,120
2016-11-12T12:47:24.995Z,130
2016-11-12T12:48:24.994Z,115
2016-11-12T12:49:25.021Z,115
2016-11-12T12:50:25.031Z,115
2016-11-12T12:51:25.057Z,115
2016-11-12T12:52:25.065Z,125
2016-11-12T12:53:25.077Z,120
2016-11-12T12:54:25.086Z,125
2016-11-12T12:55:25.095Z,120
2016-11-12T12:56:25.128Z,115
2016-11-12T12:57:25.165Z,120
2016-11-12T12:58:25.141Z,110
2016-11-12T12:59:25.160Z,115
2016-11-12T13:00:25.167Z,120
2016-11-12T13:01:25.192Z,110
2016-11-12T13:02:25.188Z,110
2016-11-12T13:03:25.217Z,120
2016-11-12T13:04:25.207Z,105
2016-11-12T13:05:25.241Z,115
2016-11-12T13:06:25.243Z,110
2016-11-12T13:07:25.261Z,115
2016-11-12T13:08:25.279Z,115
2016-11-12T13:09:25.285Z,120
2016-11-12T13:10:25.289Z,115
2016-11-12T13:11:25.626Z,115
2016-11-12T13:12:25.328Z,110
2016-11-12T13:13:25.345Z,110
2016-11-12T13:14:25.338Z,110
2016-11-12T13:15:25.365Z,110
2016-11-12T13:16:25.379Z,110
2016-11-12T13:17:25.426Z,105
2016-11-12T13:18:25.395Z,105
2016-11-12T13:19:25.422Z,105
2016-11-12T13:20:25.430Z,105
2016-11-12T13:21:25.435Z,100
2016-11-12T13:22:25.456Z,100
2016-11-12T13:23:25.462Z,100
2016-11-12T13:24:25.484Z,95
2016-11-12T13:25:25.490Z,95
2016-11-12T13:26:25.501Z,90
2016-11-12T13:27:25.514Z,90
2016-11-12T13:28:25.524Z,85
2016-11-12T13:29:25.595Z,80
2016-11-12T13:30:25.549Z,80
2016-11-12T13:31:25.605Z,75
2016-11-12T13:32:25.586Z,70
2016-11-12T13:33:25.600Z,70
2016-11-12T13:34:25.597Z,65
2016-11-12T13:35:25.620Z,65
2016-11-12T13:36:25.646Z,65
2016-11-12T13:37:25.648Z,65
2016-11-12T13:38:25.646Z,65
2016-11-12T13:39:25.663Z,65
2016-11-12T13:40:25.695Z,65
2016-11-12T13:41:25.692Z,65
2016-11-12T13:42:25.710Z,70
2016-11-12T13:43:25.723Z,65
2016-11-12T13:44:25.734Z,65
2016-11-12T13:45:25.779Z,65
2016-11-12T13:46:25.762Z,60
2016-11-12T13:47:25.771Z,60
2016-11-12T13:48:25.798Z,60
2016-11-12T13:49:25.803Z,60
2016-11-12T13:50:25.816Z,60
2016-11-12T13:51:25.834Z,55
2016-11-12T13:52:25.826Z,55
2016-11-12T13:53:25.856Z,55
2016-11-12T13:54:25.870Z,55
2016-11-12T13:55:25.889Z,55
2016-11-12T13:56:25.891Z,55
2016-11-12T13:57:25.913Z,60
2016-11-12T13:58:25.914Z,60
2016-11-12T13:59:25.931Z,60
2016-11-12T14:00:25.933Z,65
2016-11-12T14:01:25.955Z,60
2016-11-12T14:02:25.968Z,60
2016-11-12T14:03:25.971Z,60
2016-11-12T14:04:25.984Z,60
2016-11-12T14:05:26.004Z,60
2016-11-12T14:06:26.017Z,55
2016-11-12T14:07:26.022Z,55
2016-11-12T14:08:26.039Z,55
2016-11-12T14:09:26.057Z,55
2016-11-12T14:10:26.076Z,55
2016-11-12T14:11:26.082Z,55
2016-11-12T14:12:26.087Z,55
2016-11-12T14:13:26.115Z,60
2016-11-12T14:14:26.131Z,55
2016-11-12T14:15:26.120Z,60
2016-11-12T14:16:26.142Z,55
2016-11-12T14:17:26.172Z,55
2016-11-12T14:18:26.166Z,55
2016-11-12T14:19:26.215Z,55
2016-11-12T14:20:26.222Z,60
2016-11-12T14:21:26.191Z,55